sensor_id;sensor_type;location;lat;lon;timestamp;pressure;altitude;pressure_sealevel;temperature
69420;BMP280;71621;52.030;113.516;2023-08-06T00:01:09;92880.44;;;19.33
69420;BMP280;71621;52.030;113.516;2023-08-06T00:04:13;92880.44;;;19.33
69420;BMP280;71621;52.030;113.516;2023-08-06T00:07:16;92885.22;;;19.33
69420;BMP280;71621;52.030;113.516;2023-08-06T00:10:20;92881.84;;;19.32
69420;BMP280;71621;52.030;113.516;2023-08-06T00:13:23;92885.16;;;19.35
69420;BMP280;71621;52.030;113.516;2023-08-06T00:16:27;92883.13;;;19.35
69420;BMP280;71621;52.030;113.516;2023-08-06T00:19:31;92885.00;;;19.41
69420;BMP280;71621;52.030;113.516;2023-08-06T00:22:36;92876.88;;;19.41
69420;BMP280;71621;52.030;113.516;2023-08-06T00:25:40;92874.88;;;19.39
69420;BMP280;71621;52.030;113.516;2023-08-06T00:28:44;92887.72;;;19.41
69420;BMP280;71621;52.030;113.516;2023-08-06T00:31:47;92878.22;;;19.42
69420;BMP280;71621;52.030;113.516;2023-08-06T00:34:51;92887.63;;;19.45
69420;BMP280;71621;52.030;113.516;2023-08-06T00:37:55;92881.44;;;19.48
69420;BMP280;71621;52.030;113.516;2023-08-06T00:40:59;92885.41;;;19.51
69420;BMP280;71621;52.030;113.516;2023-08-06T00:44:03;92883.97;;;19.54
69420;BMP280;71621;52.030;113.516;2023-08-06T00:47:08;92882.59;;;19.55
69420;BMP280;71621;52.030;113.516;2023-08-06T00:50:11;92884.53;;;19.59
69420;BMP280;71621;52.030;113.516;2023-08-06T00:53:15;92881.09;;;19.60
69420;BMP280;71621;52.030;113.516;2023-08-06T00:56:19;92876.34;;;19.61
69420;BMP280;71621;52.030;113.516;2023-08-06T00:59:23;92884.38;;;19.65
69420;BMP280;71621;52.030;113.516;2023-08-06T01:02:26;92875.41;;;19.71
69420;BMP280;71621;52.030;113.516;2023-08-06T01:05:30;92878.72;;;19.73
69420;BMP280;71621;52.030;113.516;2023-08-06T01:08:40;92886.84;;;19.73
69420;BMP280;71621;52.030;113.516;2023-08-06T01:11:59;92888.09;;;19.78
69420;BMP280;71621;52.030;113.516;2023-08-06T01:15:16;92886.66;;;19.81
69420;BMP280;71621;52.030;113.516;2023-08-06T01:18:21;92883.94;;;19.81
69420;BMP280;71621;52.030;113.516;2023-08-06T01:21:24;92884.59;;;19.82
69420;BMP280;71621;52.030;113.516;2023-08-06T01:24:28;92886.66;;;19.81
69420;BMP280;71621;52.030;113.516;2023-08-06T01:27:50;92891.19;;;19.89
69420;BMP280;71621;52.030;113.516;2023-08-06T01:30:58;92883.81;;;19.85
69420;BMP280;71621;52.030;113.516;2023-08-06T01:34:06;92881.81;;;19.84
69420;BMP280;71621;52.030;113.516;2023-08-06T01:37:11;92887.97;;;19.82
69420;BMP280;71621;52.030;113.516;2023-08-06T01:40:15;92889.19;;;19.87
69420;BMP280;71621;52.030;113.516;2023-08-06T01:43:19;92885.69;;;19.91
69420;BMP280;71621;52.030;113.516;2023-08-06T01:46:22;92888.41;;;19.91
69420;BMP280;71621;52.030;113.516;2023-08-06T01:49:26;92880.88;;;19.93
69420;BMP280;71621;52.030;113.516;2023-08-06T01:52:29;92891.13;;;19.91
69420;BMP280;71621;52.030;113.516;2023-08-06T01:55:33;92887.19;;;19.86
69420;BMP280;71621;52.030;113.516;2023-08-06T01:58:37;92893.34;;;19.84
69420;BMP280;71621;52.030;113.516;2023-08-06T02:01:40;92906.28;;;19.82
69420;BMP280;71621;52.030;113.516;2023-08-06T02:04:44;92907.69;;;19.81
69420;BMP280;71621;52.030;113.516;2023-08-06T02:07:47;92908.34;;;19.81
69420;BMP280;71621;52.030;113.516;2023-08-06T02:10:51;92904.25;;;19.82
69420;BMP280;71621;52.030;113.516;2023-08-06T02:13:54;92912.31;;;19.84
69420;BMP280;71621;52.030;113.516;2023-08-06T02:16:58;92907.56;;;19.85
69420;BMP280;71621;52.030;113.516;2023-08-06T02:20:02;92903.47;;;19.86
69420;BMP280;71621;52.030;113.516;2023-08-06T02:23:06;92910.22;;;19.87
69420;BMP280;71621;52.030;113.516;2023-08-06T02:26:09;92896.63;;;19.89
69420;BMP280;71621;52.030;113.516;2023-08-06T02:29:13;92896.50;;;19.93
69420;BMP280;71621;52.030;113.516;2023-08-06T02:32:18;92894.38;;;19.95
69420;BMP280;71621;52.030;113.516;2023-08-06T02:35:22;92903.75;;;20.01
69420;BMP280;71621;52.030;113.516;2023-08-06T02:38:25;92904.28;;;20.05
69420;BMP280;71621;52.030;113.516;2023-08-06T02:41:29;92900.81;;;20.09
69420;BMP280;71621;52.030;113.516;2023-08-06T02:44:33;92905.44;;;20.12
69420;BMP280;71621;52.030;113.516;2023-08-06T02:47:37;92903.91;;;20.19
69420;BMP280;71621;52.030;113.516;2023-08-06T02:50:41;92894.91;;;20.25
69420;BMP280;71621;52.030;113.516;2023-08-06T02:53:45;92897.47;;;20.31
69420;BMP280;71621;52.030;113.516;2023-08-06T02:56:50;92896.63;;;20.36
69420;BMP280;71621;52.030;113.516;2023-08-06T02:59:59;92893.13;;;20.40
69420;BMP280;71621;52.030;113.516;2023-08-06T03:03:03;92907.91;;;20.45
69420;BMP280;71621;52.030;113.516;2023-08-06T03:06:17;92901.63;;;20.51
69420;BMP280;71621;52.030;113.516;2023-08-06T03:09:24;92909.06;;;20.52
69420;BMP280;71621;52.030;113.516;2023-08-06T03:12:28;92908.34;;;20.54
69420;BMP280;71621;52.030;113.516;2023-08-06T03:15:34;92906.25;;;20.54
69420;BMP280;71621;52.030;113.516;2023-08-06T03:18:39;92909.78;;;20.51
69420;BMP280;71621;52.030;113.516;2023-08-06T03:21:43;92903.03;;;20.50
69420;BMP280;71621;52.030;113.516;2023-08-06T03:24:52;92906.34;;;20.52
69420;BMP280;71621;52.030;113.516;2023-08-06T03:27:58;92900.91;;;20.52
69420;BMP280;71621;52.030;113.516;2023-08-06T03:31:03;92895.97;;;20.59
69420;BMP280;71621;52.030;113.516;2023-08-06T03:34:12;92895.38;;;20.77
69420;BMP280;71621;52.030;113.516;2023-08-06T03:37:16;92896.34;;;20.90
69420;BMP280;71621;52.030;113.516;2023-08-06T03:40:20;92904.78;;;21.03
69420;BMP280;71621;52.030;113.516;2023-08-06T03:43:24;92896.28;;;21.13
69420;BMP280;71621;52.030;113.516;2023-08-06T03:46:28;92894.63;;;21.22
69420;BMP280;71621;52.030;113.516;2023-08-06T03:49:32;92889.22;;;21.22
69420;BMP280;71621;52.030;113.516;2023-08-06T03:52:36;92887.16;;;21.23
69420;BMP280;71621;52.030;113.516;2023-08-06T03:55:40;92895.38;;;21.21
69420;BMP280;71621;52.030;113.516;2023-08-06T03:58:44;92894.69;;;21.20
69420;BMP280;71621;52.030;113.516;2023-08-06T04:01:47;92894.59;;;21.24
69420;BMP280;71621;52.030;113.516;2023-08-06T04:04:52;92891.13;;;21.26
69420;BMP280;71621;52.030;113.516;2023-08-06T04:07:56;92884.22;;;21.29
69420;BMP280;71621;52.030;113.516;2023-08-06T04:11:00;92887.00;;;21.27
69420;BMP280;71621;52.030;113.516;2023-08-06T04:14:04;92890.41;;;21.27
69420;BMP280;71621;52.030;113.516;2023-08-06T04:17:08;92892.66;;;21.21
69420;BMP280;71621;52.030;113.516;2023-08-06T04:20:11;92894.03;;;21.20
69420;BMP280;71621;52.030;113.516;2023-08-06T04:23:15;92892.84;;;21.14
69420;BMP280;71621;52.030;113.516;2023-08-06T04:26:18;92897.03;;;21.11
69420;BMP280;71621;52.030;113.516;2023-08-06T04:29:22;92888.88;;;21.11
69420;BMP280;71621;52.030;113.516;2023-08-06T04:32:26;92891.06;;;21.07
69420;BMP280;71621;52.030;113.516;2023-08-06T04:35:30;92893.25;;;21.02
69420;BMP280;71621;52.030;113.516;2023-08-06T04:38:34;92890.69;;;20.96
69420;BMP280;71621;52.030;113.516;2023-08-06T04:41:37;92891.63;;;20.89
69420;BMP280;71621;52.030;113.516;2023-08-06T04:44:41;92897.72;;;20.89
69420;BMP280;71621;52.030;113.516;2023-08-06T04:47:44;92886.19;;;20.89
69420;BMP280;71621;52.030;113.516;2023-08-06T04:50:50;92880.09;;;20.88
69420;BMP280;71621;52.030;113.516;2023-08-06T04:53:53;92873.34;;;20.87
69420;BMP280;71621;52.030;113.516;2023-08-06T04:56:57;92883.56;;;20.87
69420;BMP280;71621;52.030;113.516;2023-08-06T05:00:04;92887.53;;;20.90
69420;BMP280;71621;52.030;113.516;2023-08-06T05:03:08;92885.94;;;20.97
69420;BMP280;71621;52.030;113.516;2023-08-06T05:06:11;92892.53;;;21.04
69420;BMP280;71621;52.030;113.516;2023-08-06T05:09:15;92882.16;;;21.08
69420;BMP280;71621;52.030;113.516;2023-08-06T05:12:19;92895.16;;;21.06
69420;BMP280;71621;52.030;113.516;2023-08-06T05:15:22;92884.88;;;21.08
69420;BMP280;71621;52.030;113.516;2023-08-06T05:18:28;92903.78;;;21.12
69420;BMP280;71621;52.030;113.516;2023-08-06T05:21:33;92897.31;;;21.24
69420;BMP280;71621;52.030;113.516;2023-08-06T05:24:37;92901.16;;;21.31
69420;BMP280;71621;52.030;113.516;2023-08-06T05:27:41;92896.16;;;21.38
69420;BMP280;71621;52.030;113.516;2023-08-06T05:30:44;92890.59;;;21.42
69420;BMP280;71621;52.030;113.516;2023-08-06T05:33:48;92894.66;;;21.41
69420;BMP280;71621;52.030;113.516;2023-08-06T05:36:51;92887.19;;;21.41
69420;BMP280;71621;52.030;113.516;2023-08-06T05:39:56;92884.44;;;21.43
69420;BMP280;71621;52.030;113.516;2023-08-06T05:42:59;92885.00;;;21.46
69420;BMP280;71621;52.030;113.516;2023-08-06T05:46:03;92887.16;;;21.43
69420;BMP280;71621;52.030;113.516;2023-08-06T05:49:07;92880.59;;;21.36
69420;BMP280;71621;52.030;113.516;2023-08-06T05:52:10;92876.88;;;21.25
69420;BMP280;71621;52.030;113.516;2023-08-06T05:55:14;92886.16;;;21.11
69420;BMP280;71621;52.030;113.516;2023-08-06T05:58:18;92888.34;;;21.07
69420;BMP280;71621;52.030;113.516;2023-08-06T06:01:23;92881.56;;;21.06
69420;BMP280;71621;52.030;113.516;2023-08-06T06:04:28;92891.19;;;21.03
69420;BMP280;71621;52.030;113.516;2023-08-06T06:07:32;92884.53;;;20.98
69420;BMP280;71621;52.030;113.516;2023-08-06T06:10:35;92893.56;;;20.92
69420;BMP280;71621;52.030;113.516;2023-08-06T06:13:39;92899.47;;;20.99
69420;BMP280;71621;52.030;113.516;2023-08-06T06:16:43;92893.16;;;21.04
69420;BMP280;71621;52.030;113.516;2023-08-06T06:19:46;92885.53;;;21.09
69420;BMP280;71621;52.030;113.516;2023-08-06T06:22:50;92891.38;;;21.17
69420;BMP280;71621;52.030;113.516;2023-08-06T06:25:53;92895.81;;;21.27
69420;BMP280;71621;52.030;113.516;2023-08-06T06:28:58;92887.31;;;21.37
69420;BMP280;71621;52.030;113.516;2023-08-06T06:32:02;92893.56;;;21.54
69420;BMP280;71621;52.030;113.516;2023-08-06T06:35:06;92907.53;;;21.63
69420;BMP280;71621;52.030;113.516;2023-08-06T06:38:10;92880.19;;;21.67
69420;BMP280;71621;52.030;113.516;2023-08-06T06:41:13;92894.03;;;21.80
69420;BMP280;71621;52.030;113.516;2023-08-06T06:44:17;92885.66;;;21.86
69420;BMP280;71621;52.030;113.516;2023-08-06T06:47:23;92885.50;;;21.90
69420;BMP280;71621;52.030;113.516;2023-08-06T06:50:27;92891.50;;;21.92
69420;BMP280;71621;52.030;113.516;2023-08-06T06:53:30;92890.00;;;21.97
69420;BMP280;71621;52.030;113.516;2023-08-06T06:56:34;92890.16;;;21.93
69420;BMP280;71621;52.030;113.516;2023-08-06T06:59:37;92890.22;;;21.91
69420;BMP280;71621;52.030;113.516;2023-08-06T07:02:41;92898.06;;;21.81
69420;BMP280;71621;52.030;113.516;2023-08-06T07:05:45;92891.38;;;21.78
69420;BMP280;71621;52.030;113.516;2023-08-06T07:08:49;92892.91;;;21.73
69420;BMP280;71621;52.030;113.516;2023-08-06T07:11:52;92891.25;;;21.61
69420;BMP280;71621;52.030;113.516;2023-08-06T07:14:56;92891.56;;;21.53
69420;BMP280;71621;52.030;113.516;2023-08-06T07:18:00;92903.16;;;21.51
69420;BMP280;71621;52.030;113.516;2023-08-06T07:21:04;92902.66;;;21.47
69420;BMP280;71621;52.030;113.516;2023-08-06T07:24:08;92906.91;;;21.42
69420;BMP280;71621;52.030;113.516;2023-08-06T07:27:11;92911.78;;;21.37
69420;BMP280;71621;52.030;113.516;2023-08-06T07:30:15;92909.81;;;21.36
69420;BMP280;71621;52.030;113.516;2023-08-06T07:33:18;92912.44;;;21.38
69420;BMP280;71621;52.030;113.516;2023-08-06T07:36:22;92915.25;;;21.36
69420;BMP280;71621;52.030;113.516;2023-08-06T07:39:25;92915.19;;;21.38
69420;BMP280;71621;52.030;113.516;2023-08-06T07:42:31;92911.28;;;21.33
69420;BMP280;71621;52.030;113.516;2023-08-06T07:45:35;92916.31;;;21.24
69420;BMP280;71621;52.030;113.516;2023-08-06T07:48:39;92912.34;;;21.21
69420;BMP280;71621;52.030;113.516;2023-08-06T07:51:42;92910.34;;;21.20
69420;BMP280;71621;52.030;113.516;2023-08-06T07:54:46;92907.03;;;21.17
69420;BMP280;71621;52.030;113.516;2023-08-06T07:57:49;92907.03;;;21.17
69420;BMP280;71621;52.030;113.516;2023-08-06T08:00:53;92906.97;;;21.19
69420;BMP280;71621;52.030;113.516;2023-08-06T08:03:56;92917.22;;;21.16
69420;BMP280;71621;52.030;113.516;2023-08-06T08:07:00;92917.22;;;21.16
69420;BMP280;71621;52.030;113.516;2023-08-06T08:10:04;92921.28;;;21.17
69420;BMP280;71621;52.030;113.516;2023-08-06T08:13:08;92928.69;;;21.19
69420;BMP280;71621;52.030;113.516;2023-08-06T08:16:12;92926.84;;;21.13
69420;BMP280;71621;52.030;113.516;2023-08-06T08:19:15;92920.03;;;21.14
69420;BMP280;71621;52.030;113.516;2023-08-06T08:22:19;92926.13;;;21.15
69420;BMP280;71621;52.030;113.516;2023-08-06T08:25:22;92933.16;;;21.08
69420;BMP280;71621;52.030;113.516;2023-08-06T08:28:26;92925.06;;;21.06
69420;BMP280;71621;52.030;113.516;2023-08-06T08:31:29;92928.50;;;21.04
69420;BMP280;71621;52.030;113.516;2023-08-06T08:34:33;92927.09;;;21.05
69420;BMP280;71621;52.030;113.516;2023-08-06T08:37:37;92931.06;;;21.08
69420;BMP280;71621;52.030;113.516;2023-08-06T08:40:46;92939.84;;;21.11
69420;BMP280;71621;52.030;113.516;2023-08-06T08:43:50;92928.50;;;21.04
69420;BMP280;71621;52.030;113.516;2023-08-06T08:46:55;92935.91;;;21.06
69420;BMP280;71621;52.030;113.516;2023-08-06T08:49:59;92942.03;;;21.06
69420;BMP280;71621;52.030;113.516;2023-08-06T08:53:04;92929.00;;;21.09
69420;BMP280;71621;52.030;113.516;2023-08-06T08:56:09;92932.47;;;21.07
69420;BMP280;71621;52.030;113.516;2023-08-06T08:59:14;92925.13;;;21.04
69420;BMP280;71621;52.030;113.516;2023-08-06T09:02:18;92929.81;;;21.05
69420;BMP280;71621;52.030;113.516;2023-08-06T09:05:27;92934.44;;;21.09
69420;BMP280;71621;52.030;113.516;2023-08-06T09:08:36;92932.47;;;21.07
69420;BMP280;71621;52.030;113.516;2023-08-06T09:11:43;92929.69;;;21.09
69420;BMP280;71621;52.030;113.516;2023-08-06T09:14:47;92933.03;;;21.12
69420;BMP280;71621;52.030;113.516;2023-08-06T09:17:52;92926.03;;;21.17
69420;BMP280;71621;52.030;113.516;2023-08-06T09:20:57;92924.00;;;21.17
69420;BMP280;71621;52.030;113.516;2023-08-06T09:24:01;92929.44;;;21.17
69420;BMP280;71621;52.030;113.516;2023-08-06T09:27:04;92923.31;;;21.17
69420;BMP280;71621;52.030;113.516;2023-08-06T09:30:08;92930.03;;;21.20
69420;BMP280;71621;52.030;113.516;2023-08-06T09:33:18;92910.22;;;21.24
69420;BMP280;71621;52.030;113.516;2023-08-06T09:36:22;92916.38;;;21.22
69420;BMP280;71621;52.030;113.516;2023-08-06T09:39:29;92919.53;;;21.29
69420;BMP280;71621;52.030;113.516;2023-08-06T09:42:36;92918.78;;;21.32
69420;BMP280;71621;52.030;113.516;2023-08-06T09:45:40;92918.81;;;21.30
69420;BMP280;71621;52.030;113.516;2023-08-06T09:48:46;92915.41;;;21.32
69420;BMP280;71621;52.030;113.516;2023-08-06T09:51:51;92912.19;;;21.25
69420;BMP280;71621;52.030;113.516;2023-08-06T09:54:57;92915.78;;;21.20
69420;BMP280;71621;52.030;113.516;2023-08-06T09:58:02;92924.00;;;21.17
69420;BMP280;71621;52.030;113.516;2023-08-06T10:01:06;92919.09;;;21.22
69420;BMP280;71621;52.030;113.516;2023-08-06T10:04:09;92913.66;;;21.22
69420;BMP280;71621;52.030;113.516;2023-08-06T10:07:25;92922.66;;;21.16
69420;BMP280;71621;52.030;113.516;2023-08-06T10:10:30;92920.75;;;21.13
69420;BMP280;71621;52.030;113.516;2023-08-06T10:13:35;92923.47;;;21.13
69420;BMP280;71621;52.030;113.516;2023-08-06T10:16:41;92925.31;;;21.18
69420;BMP280;71621;52.030;113.516;2023-08-06T10:19:46;92917.09;;;21.21
69420;BMP280;71621;52.030;113.516;2023-08-06T10:23:03;92916.31;;;21.24
69420;BMP280;71621;52.030;113.516;2023-08-06T10:26:08;92921.09;;;21.24
69420;BMP280;71621;52.030;113.516;2023-08-06T10:29:36;92921.53;;;21.30
69420;BMP280;71621;52.030;113.516;2023-08-06T10:32:47;92922.19;;;21.31
69420;BMP280;71621;52.030;113.516;2023-08-06T10:36:01;92918.78;;;21.32
69420;BMP280;71621;52.030;113.516;2023-08-06T10:39:13;92924.22;;;21.32
69420;BMP280;71621;52.030;113.516;2023-08-06T10:42:32;92924.34;;;21.28
69420;BMP280;71621;52.030;113.516;2023-08-06T10:45:37;92929.25;;;21.24
69420;BMP280;71621;52.030;113.516;2023-08-06T10:48:41;92931.31;;;21.23
69420;BMP280;71621;52.030;113.516;2023-08-06T10:51:48;92924.53;;;21.22
69420;BMP280;71621;52.030;113.516;2023-08-06T10:54:54;92927.97;;;21.21
69420;BMP280;71621;52.030;113.516;2023-08-06T10:57:58;92926.03;;;21.17
69420;BMP280;71621;52.030;113.516;2023-08-06T11:01:02;92930.94;;;21.12
69420;BMP280;71621;52.030;113.516;2023-08-06T11:04:05;92927.72;;;21.08
69420;BMP280;71621;52.030;113.516;2023-08-06T11:07:10;92918.44;;;21.01
69420;BMP280;71621;52.030;113.516;2023-08-06T11:10:13;92927.84;;;21.04
69420;BMP280;71621;52.030;113.516;2023-08-06T11:13:17;92930.63;;;21.02
69420;BMP280;71621;52.030;113.516;2023-08-06T11:16:23;92929.91;;;21.03
69420;BMP280;71621;52.030;113.516;2023-08-06T11:19:30;92932.06;;;20.99
69420;BMP280;71621;52.030;113.516;2023-08-06T11:22:33;92930.72;;;20.98
69420;BMP280;71621;52.030;113.516;2023-08-06T11:25:37;92941.06;;;20.93
69420;BMP280;71621;52.030;113.516;2023-08-06T11:28:47;92934.31;;;20.92
69420;BMP280;71621;52.030;113.516;2023-08-06T11:31:50;92932.38;;;20.89
69420;BMP280;71621;52.030;113.516;2023-08-06T11:34:55;92938.00;;;20.83
69420;BMP280;71621;52.030;113.516;2023-08-06T11:38:00;92936.09;;;20.79
69420;BMP280;71621;52.030;113.516;2023-08-06T11:41:03;92939.56;;;20.75
69420;BMP280;71621;52.030;113.516;2023-08-06T11:44:11;92935.47;;;20.76
69420;BMP280;71621;52.030;113.516;2023-08-06T11:47:19;92940.91;;;20.76
69420;BMP280;71621;52.030;113.516;2023-08-06T11:50:27;92949.75;;;20.75
69420;BMP280;71621;52.030;113.516;2023-08-06T11:53:30;92946.53;;;20.70
69420;BMP280;71621;52.030;113.516;2023-08-06T11:56:34;92949.34;;;20.66
69420;BMP280;71621;52.030;113.516;2023-08-06T11:59:39;92945.97;;;20.66
69420;BMP280;71621;52.030;113.516;2023-08-06T12:02:44;92944.81;;;20.59
69420;BMP280;71621;52.030;113.516;2023-08-06T12:05:48;92955.69;;;20.59
69420;BMP280;71621;52.030;113.516;2023-08-06T12:08:52;92959.84;;;20.56
69420;BMP280;71621;52.030;113.516;2023-08-06T12:11:55;92963.28;;;20.54
69420;BMP280;71621;52.030;113.516;2023-08-06T12:15:00;92964.69;;;20.53
69420;BMP280;71621;52.030;113.516;2023-08-06T12:18:04;92970.16;;;20.51
69420;BMP280;71621;52.030;113.516;2023-08-06T12:21:09;92969.56;;;20.49
69420;BMP280;71621;52.030;113.516;2023-08-06T12:24:12;92969.59;;;20.47
69420;BMP280;71621;52.030;113.516;2023-08-06T12:27:16;92977.06;;;20.48
69420;BMP280;71621;52.030;113.516;2023-08-06T12:30:20;92976.41;;;20.46
69420;BMP280;71621;52.030;113.516;2023-08-06T12:33:25;92975.81;;;20.43
69420;BMP280;71621;52.030;113.516;2023-08-06T12:36:28;92982.63;;;20.42
69420;BMP280;71621;52.030;113.516;2023-08-06T12:39:32;92990.09;;;20.42
69420;BMP280;71621;52.030;113.516;2023-08-06T12:42:35;92989.38;;;20.43
69420;BMP280;71621;52.030;113.516;2023-08-06T12:45:39;92987.41;;;20.42
69420;BMP280;71621;52.030;113.516;2023-08-06T12:48:42;92986.13;;;20.38
69420;BMP280;71621;52.030;113.516;2023-08-06T12:51:48;92990.19;;;20.37
69420;BMP280;71621;52.030;113.516;2023-08-06T12:54:51;92988.91;;;20.36
69420;BMP280;71621;52.030;113.516;2023-08-06T12:57:55;92991.00;;;20.34
69420;BMP280;71621;52.030;113.516;2023-08-06T13:01:00;92985.03;;;20.29
69420;BMP280;71621;52.030;113.516;2023-08-06T13:04:04;92993.16;;;20.29
69420;BMP280;71621;52.030;113.516;2023-08-06T13:07:23;92991.06;;;20.32
69420;BMP280;71621;52.030;113.516;2023-08-06T13:10:27;92989.78;;;20.29
69420;BMP280;71621;52.030;113.516;2023-08-06T13:13:32;92991.19;;;20.28
69420;BMP280;71621;52.030;113.516;2023-08-06T13:16:37;92997.28;;;20.28
69420;BMP280;71621;52.030;113.516;2023-08-06T13:19:40;92997.38;;;20.24
69420;BMP280;71621;52.030;113.516;2023-08-06T13:22:44;93004.19;;;20.23
69420;BMP280;71621;52.030;113.516;2023-08-06T13:25:49;93008.34;;;20.20
69420;BMP280;71621;52.030;113.516;2023-08-06T13:28:53;93011.03;;;20.20
69420;BMP280;71621;52.030;113.516;2023-08-06T13:31:56;93012.44;;;20.19
69420;BMP280;71621;52.030;113.516;2023-08-06T13:35:00;93009.75;;;20.19
69420;BMP280;71621;52.030;113.516;2023-08-06T13:38:04;93015.22;;;20.17
69420;BMP280;71621;52.030;113.516;2023-08-06T13:41:08;93017.44;;;20.11
69420;BMP280;71621;52.030;113.516;2023-08-06T13:44:11;93014.03;;;20.10
69420;BMP280;71621;52.030;113.516;2023-08-06T13:47:17;93012.13;;;20.07
69420;BMP280;71621;52.030;113.516;2023-08-06T13:50:20;93009.50;;;20.03
69420;BMP280;71621;52.030;113.516;2023-08-06T13:53:25;93016.97;;;20.02
69420;BMP280;71621;52.030;113.516;2023-08-06T13:56:34;93014.97;;;20.01
69420;BMP280;71621;52.030;113.516;2023-08-06T13:59:38;93016.97;;;20.02
69420;BMP280;71621;52.030;113.516;2023-08-06T14:02:42;93015.63;;;20.01
69420;BMP280;71621;52.030;113.516;2023-08-06T14:05:47;93017.00;;;20.00
69420;BMP280;71621;52.030;113.516;2023-08-06T14:08:51;93012.97;;;19.99
69420;BMP280;71621;52.030;113.516;2023-08-06T14:11:55;93016.41;;;19.97
69420;BMP280;71621;52.030;113.516;2023-08-06T14:14:59;93010.41;;;19.93
69420;BMP280;71621;52.030;113.516;2023-08-06T14:18:02;93013.84;;;19.91
69420;BMP280;71621;52.030;113.516;2023-08-06T14:21:06;93020.72;;;19.88
69420;BMP280;71621;52.030;113.516;2023-08-06T14:24:10;93016.72;;;19.85
69420;BMP280;71621;52.030;113.516;2023-08-06T14:27:13;93023.56;;;19.82
69420;BMP280;71621;52.030;113.516;2023-08-06T14:30:17;93020.25;;;19.80
69420;BMP280;71621;52.030;113.516;2023-08-06T14:33:21;93027.72;;;19.79
69420;BMP280;71621;52.030;113.516;2023-08-06T14:36:29;93032.53;;;19.77
69420;BMP280;71621;52.030;113.516;2023-08-06T14:39:32;93030.50;;;19.75
69420;BMP280;71621;52.030;113.516;2023-08-06T14:42:36;93037.28;;;19.76
69420;BMP280;71621;52.030;113.516;2023-08-06T14:45:40;93035.28;;;19.75
69420;BMP280;71621;52.030;113.516;2023-08-06T14:48:43;93027.91;;;19.71
69420;BMP280;71621;52.030;113.516;2023-08-06T14:51:47;93031.41;;;19.68
69420;BMP280;71621;52.030;113.516;2023-08-06T14:54:50;93031.50;;;19.64
69420;BMP280;71621;52.030;113.516;2023-08-06T14:57:55;93025.41;;;19.63
69420;BMP280;71621;52.030;113.516;2023-08-06T15:00:59;93030.19;;;19.60
69420;BMP280;71621;52.030;113.516;2023-08-06T15:04:02;93027.56;;;19.58
69420;BMP280;71621;52.030;113.516;2023-08-06T15:07:07;93021.50;;;19.56
69420;BMP280;71621;52.030;113.516;2023-08-06T15:10:14;93024.94;;;19.54
69420;BMP280;71621;52.030;113.516;2023-08-06T15:13:29;93014.22;;;19.48
69420;BMP280;71621;52.030;113.516;2023-08-06T15:16:36;93022.31;;;19.50
69420;BMP280;71621;52.030;113.516;2023-08-06T15:19:39;93017.00;;;19.46
69420;BMP280;71621;52.030;113.516;2023-08-06T15:22:43;93013.72;;;19.42
69420;BMP280;71621;52.030;113.516;2023-08-06T15:25:47;93017.91;;;19.37
69420;BMP280;71621;52.030;113.516;2023-08-06T15:28:50;93019.94;;;19.36
69420;BMP280;71621;52.030;113.516;2023-08-06T15:31:54;93024.78;;;19.32
69420;BMP280;71621;52.030;113.516;2023-08-06T15:34:58;93018.84;;;19.25
69420;BMP280;71621;52.030;113.516;2023-08-06T15:38:01;93019.63;;;19.19
69420;BMP280;71621;52.030;113.516;2023-08-06T15:41:05;93019.09;;;19.15
69420;BMP280;71621;52.030;113.516;2023-08-06T15:44:09;93015.06;;;19.12
69420;BMP280;71621;52.030;113.516;2023-08-06T15:47:12;93023.25;;;19.10
69420;BMP280;71621;52.030;113.516;2023-08-06T15:50:16;93022.69;;;19.05
69420;BMP280;71621;52.030;113.516;2023-08-06T15:53:20;93022.75;;;19.01
69420;BMP280;71621;52.030;113.516;2023-08-06T15:56:24;93023.56;;;18.96
69420;BMP280;71621;52.030;113.516;2023-08-06T15:59:29;93029.69;;;18.94
69420;BMP280;71621;52.030;113.516;2023-08-06T16:02:33;93027.69;;;18.93
69420;BMP280;71621;52.030;113.516;2023-08-06T16:05:36;93036.53;;;18.89
69420;BMP280;71621;52.030;113.516;2023-08-06T16:08:40;93025.22;;;18.83
69420;BMP280;71621;52.030;113.516;2023-08-06T16:11:44;93022.50;;;18.83
69420;BMP280;71621;52.030;113.516;2023-08-06T16:14:49;93021.09;;;18.83
69420;BMP280;71621;52.030;113.516;2023-08-06T16:17:52;93019.88;;;18.78
69420;BMP280;71621;52.030;113.516;2023-08-06T16:20:56;93019.94;;;18.74
69420;BMP280;71621;52.030;113.516;2023-08-06T16:24:00;93021.97;;;18.74
69420;BMP280;71621;52.030;113.516;2023-08-06T16:27:04;93024.03;;;18.71
69420;BMP280;71621;52.030;113.516;2023-08-06T16:30:08;93020.00;;;18.70
69420;BMP280;71621;52.030;113.516;2023-08-06T16:33:12;93017.28;;;18.72
69420;BMP280;71621;52.030;113.516;2023-08-06T16:36:15;93018.69;;;18.69
69420;BMP280;71621;52.030;113.516;2023-08-06T16:39:19;93013.34;;;18.65
69420;BMP280;71621;52.030;113.516;2023-08-06T16:42:24;93014.09;;;18.64
69420;BMP280;71621;52.030;113.516;2023-08-06T16:45:29;93016.72;;;18.66
69420;BMP280;71621;52.030;113.516;2023-08-06T16:48:33;93017.50;;;18.62
69420;BMP280;71621;52.030;113.516;2023-08-06T16:51:38;93018.16;;;18.61
69420;BMP280;71621;52.030;113.516;2023-08-06T16:54:42;93013.44;;;18.61
69420;BMP280;71621;52.030;113.516;2023-08-06T16:57:46;93009.44;;;18.58
69420;BMP280;71621;52.030;113.516;2023-08-06T17:00:49;93010.78;;;18.59
69420;BMP280;71621;52.030;113.516;2023-08-06T17:03:53;93006.72;;;18.58
69420;BMP280;71621;52.030;113.516;2023-08-06T17:06:58;93012.81;;;18.59
69420;BMP280;71621;52.030;113.516;2023-08-06T17:10:01;93009.38;;;18.60
69420;BMP280;71621;52.030;113.516;2023-08-06T17:13:06;93008.06;;;18.59